sensor_id;sensor_type;location;lat;lon;timestamp;temperature;humidity
35960;DHT22;22043;50.970;7.192;2023-03-01T00:02:19;2.10;99.90
35960;DHT22;22043;50.970;7.192;2023-03-01T00:04:45;2.10;99.90
35960;DHT22;22043;50.970;7.192;2023-03-01T00:07:11;2.10;99.90
35960;DHT22;22043;50.970;7.192;2023-03-01T00:09:37;2.00;99.90
35960;DHT22;22043;50.970;7.192;2023-03-01T00:12:03;2.00;99.90
35960;DHT22;22043;50.970;7.192;2023-03-01T00:14:29;2.00;99.90
35960;DHT22;22043;50.970;7.192;2023-03-01T00:16:55;2.00;99.90
35960;DHT22;22043;50.970;7.192;2023-03-01T00:19:21;1.90;99.90
35960;DHT22;22043;50.970;7.192;2023-03-01T00:21:48;1.90;99.90
35960;DHT22;22043;50.970;7.192;2023-03-01T00:24:14;1.80;99.90
35960;DHT22;22043;50.970;7.192;2023-03-01T00:26:40;1.80;99.90
35960;DHT22;22043;50.970;7.192;2023-03-01T00:29:06;1.80;99.90
35960;DHT22;22043;50.970;7.192;2023-03-01T00:31:32;1.80;99.90
35960;DHT22;22043;50.970;7.192;2023-03-01T00:34:00;1.90;99.90
35960;DHT22;22043;50.970;7.192;2023-03-01T00:36:32;1.90;99.90
35960;DHT22;22043;50.970;7.192;2023-03-01T00:38:59;1.90;99.90
35960;DHT22;22043;50.970;7.192;2023-03-01T00:41:25;1.90;99.90
35960;DHT22;22043;50.970;7.192;2023-03-01T00:43:54;1.90;99.90
35960;DHT22;22043;50.970;7.192;2023-03-01T00:46:23;2.00;99.90
35960;DHT22;22043;50.970;7.192;2023-03-01T00:48:49;2.00;99.90
35960;DHT22;22043;50.970;7.192;2023-03-01T00:51:20;2.00;99.90
35960;DHT22;22043;50.970;7.192;2023-03-01T00:53:47;2.00;99.90
35960;DHT22;22043;50.970;7.192;2023-03-01T00:56:15;2.00;99.90
35960;DHT22;22043;50.970;7.192;2023-03-01T00:58:41;2.00;99.90
35960;DHT22;22043;50.970;7.192;2023-03-01T01:01:24;2.00;99.90
35960;DHT22;22043;50.970;7.192;2023-03-01T01:03:55;2.00;99.90
35960;DHT22;22043;50.970;7.192;2023-03-01T01:06:24;2.00;99.90
35960;DHT22;22043;50.970;7.192;2023-03-01T01:08:50;2.00;99.90
35960;DHT22;22043;50.970;7.192;2023-03-01T01:11:16;2.00;99.90
35960;DHT22;22043;50.970;7.192;2023-03-01T01:13:44;2.00;99.90
35960;DHT22;22043;50.970;7.192;2023-03-01T01:16:10;2.00;99.90
35960;DHT22;22043;50.970;7.192;2023-03-01T01:18:36;1.90;99.90
35960;DHT22;22043;50.970;7.192;2023-03-01T01:21:10;1.90;99.90
35960;DHT22;22043;50.970;7.192;2023-03-01T01:23:37;1.90;99.90
35960;DHT22;22043;50.970;7.192;2023-03-01T01:26:05;1.90;99.90
35960;DHT22;22043;50.970;7.192;2023-03-01T01:28:31;1.90;99.90
35960;DHT22;22043;50.970;7.192;2023-03-01T01:30:57;1.90;99.90
35960;DHT22;22043;50.970;7.192;2023-03-01T01:33:22;1.80;99.90
35960;DHT22;22043;50.970;7.192;2023-03-01T01:35:48;1.80;99.90
35960;DHT22;22043;50.970;7.192;2023-03-01T01:38:14;1.80;99.90
35960;DHT22;22043;50.970;7.192;2023-03-01T01:40:46;1.80;99.90
35960;DHT22;22043;50.970;7.192;2023-03-01T01:45:46;1.80;99.90
35960;DHT22;22043;50.970;7.192;2023-03-01T01:48:16;1.70;99.90
35960;DHT22;22043;50.970;7.192;2023-03-01T01:50:44;1.80;99.90
35960;DHT22;22043;50.970;7.192;2023-03-01T01:53:16;1.70;99.90
35960;DHT22;22043;50.970;7.192;2023-03-01T01:55:46;1.80;99.90
35960;DHT22;22043;50.970;7.192;2023-03-01T01:58:16;1.70;99.90
35960;DHT22;22043;50.970;7.192;2023-03-01T02:00:43;1.70;99.90
35960;DHT22;22043;50.970;7.192;2023-03-01T02:03:12;1.70;99.90
35960;DHT22;22043;50.970;7.192;2023-03-01T02:05:43;1.70;99.90
35960;DHT22;22043;50.970;7.192;2023-03-01T02:08:12;1.70;99.90
35960;DHT22;22043;50.970;7.192;2023-03-01T02:10:39;1.70;99.90
35960;DHT22;22043;50.970;7.192;2023-03-01T02:13:06;1.70;99.90
35960;DHT22;22043;50.970;7.192;2023-03-01T02:15:36;1.70;99.90
35960;DHT22;22043;50.970;7.192;2023-03-01T02:18:04;1.70;99.90
35960;DHT22;22043;50.970;7.192;2023-03-01T02:23:16;1.60;99.90
35960;DHT22;22043;50.970;7.192;2023-03-01T02:26:06;1.60;99.90
35960;DHT22;22043;50.970;7.192;2023-03-01T02:28:38;1.60;99.90
35960;DHT22;22043;50.970;7.192;2023-03-01T02:31:08;1.60;99.90
35960;DHT22;22043;50.970;7.192;2023-03-01T02:33:53;1.70;99.90
35960;DHT22;22043;50.970;7.192;2023-03-01T02:36:28;1.60;99.90
35960;DHT22;22043;50.970;7.192;2023-03-01T02:38:58;1.60;99.90
35960;DHT22;22043;50.970;7.192;2023-03-01T02:41:26;1.60;99.90
35960;DHT22;22043;50.970;7.192;2023-03-01T02:43:53;1.60;99.90
35960;DHT22;22043;50.970;7.192;2023-03-01T02:46:25;1.50;99.90
35960;DHT22;22043;50.970;7.192;2023-03-01T02:48:55;1.50;99.90
35960;DHT22;22043;50.970;7.192;2023-03-01T02:54:23;1.50;99.90
35960;DHT22;22043;50.970;7.192;2023-03-01T02:56:51;1.50;99.90
35960;DHT22;22043;50.970;7.192;2023-03-01T02:59:22;1.50;99.90
35960;DHT22;22043;50.970;7.192;2023-03-01T03:01:50;1.50;99.90
35960;DHT22;22043;50.970;7.192;2023-03-01T03:04:18;1.50;99.90
35960;DHT22;22043;50.970;7.192;2023-03-01T03:06:48;1.50;99.90
35960;DHT22;22043;50.970;7.192;2023-03-01T03:09:15;1.50;99.90
35960;DHT22;22043;50.970;7.192;2023-03-01T03:11:41;1.40;99.90
35960;DHT22;22043;50.970;7.192;2023-03-01T03:14:10;1.40;99.90
35960;DHT22;22043;50.970;7.192;2023-03-01T03:16:44;1.40;99.90
35960;DHT22;22043;50.970;7.192;2023-03-01T03:19:10;1.40;99.90
35960;DHT22;22043;50.970;7.192;2023-03-01T03:21:36;1.40;99.90
35960;DHT22;22043;50.970;7.192;2023-03-01T03:24:02;1.40;99.90
35960;DHT22;22043;50.970;7.192;2023-03-01T03:26:28;1.40;99.90
35960;DHT22;22043;50.970;7.192;2023-03-01T03:28:54;1.40;99.90
35960;DHT22;22043;50.970;7.192;2023-03-01T03:31:20;1.30;99.90
35960;DHT22;22043;50.970;7.192;2023-03-01T03:33:45;1.40;99.90
35960;DHT22;22043;50.970;7.192;2023-03-01T03:36:20;1.40;99.90
35960;DHT22;22043;50.970;7.192;2023-03-01T03:38:46;1.30;99.90
35960;DHT22;22043;50.970;7.192;2023-03-01T03:41:13;1.30;99.90
35960;DHT22;22043;50.970;7.192;2023-03-01T03:43:40;1.40;99.90
35960;DHT22;22043;50.970;7.192;2023-03-01T03:46:08;1.40;99.90
35960;DHT22;22043;50.970;7.192;2023-03-01T03:48:43;1.40;99.90
35960;DHT22;22043;50.970;7.192;2023-03-01T03:51:14;1.40;99.90
35960;DHT22;22043;50.970;7.192;2023-03-01T03:53:40;1.30;99.90
35960;DHT22;22043;50.970;7.192;2023-03-01T03:56:06;1.40;99.90
35960;DHT22;22043;50.970;7.192;2023-03-01T03:58:32;1.30;99.90
35960;DHT22;22043;50.970;7.192;2023-03-01T04:00:58;1.40;99.90
35960;DHT22;22043;50.970;7.192;2023-03-01T04:03:25;1.40;99.90
35960;DHT22;22043;50.970;7.192;2023-03-01T04:05:52;1.40;99.90
35960;DHT22;22043;50.970;7.192;2023-03-01T04:08:19;1.30;99.90
35960;DHT22;22043;50.970;7.192;2023-03-01T04:10:52;1.30;99.90
35960;DHT22;22043;50.970;7.192;2023-03-01T04:13:22;1.30;99.90
35960;DHT22;22043;50.970;7.192;2023-03-01T04:15:52;1.30;99.90
35960;DHT22;22043;50.970;7.192;2023-03-01T04:18:19;1.20;99.90
35960;DHT22;22043;50.970;7.192;2023-03-01T04:20:47;1.30;99.90
35960;DHT22;22043;50.970;7.192;2023-03-01T04:23:15;1.20;99.90
35960;DHT22;22043;50.970;7.192;2023-03-01T04:25:42;1.20;99.90
35960;DHT22;22043;50.970;7.192;2023-03-01T04:28:10;1.20;99.90
35960;DHT22;22043;50.970;7.192;2023-03-01T04:30:37;1.20;99.90
35960;DHT22;22043;50.970;7.192;2023-03-01T04:35:35;1.20;99.90
35960;DHT22;22043;50.970;7.192;2023-03-01T04:38:01;1.20;99.90
35960;DHT22;22043;50.970;7.192;2023-03-01T04:40:27;1.20;99.90
35960;DHT22;22043;50.970;7.192;2023-03-01T04:42:52;1.20;99.90
35960;DHT22;22043;50.970;7.192;2023-03-01T04:45:18;1.20;99.90
35960;DHT22;22043;50.970;7.192;2023-03-01T04:47:46;1.20;99.90
35960;DHT22;22043;50.970;7.192;2023-03-01T04:50:15;1.20;99.90
35960;DHT22;22043;50.970;7.192;2023-03-01T04:52:46;1.20;99.90
35960;DHT22;22043;50.970;7.192;2023-03-01T04:55:12;1.20;99.90
35960;DHT22;22043;50.970;7.192;2023-03-01T04:57:38;1.20;99.90
35960;DHT22;22043;50.970;7.192;2023-03-01T05:00:07;1.20;99.90
35960;DHT22;22043;50.970;7.192;2023-03-01T05:02:46;1.10;99.90
35960;DHT22;22043;50.970;7.192;2023-03-01T05:05:14;1.00;99.90
35960;DHT22;22043;50.970;7.192;2023-03-01T05:07:40;1.00;99.90
35960;DHT22;22043;50.970;7.192;2023-03-01T05:10:05;1.00;99.90
35960;DHT22;22043;50.970;7.192;2023-03-01T05:12:31;1.00;99.90
35960;DHT22;22043;50.970;7.192;2023-03-01T05:14:57;1.00;99.90
35960;DHT22;22043;50.970;7.192;2023-03-01T05:17:23;1.00;99.90
35960;DHT22;22043;50.970;7.192;2023-03-01T05:19:49;1.00;99.90
35960;DHT22;22043;50.970;7.192;2023-03-01T05:22:15;1.00;99.90
35960;DHT22;22043;50.970;7.192;2023-03-01T05:24:41;1.00;99.90
35960;DHT22;22043;50.970;7.192;2023-03-01T05:27:07;0.90;99.90
35960;DHT22;22043;50.970;7.192;2023-03-01T05:29:33;0.90;99.90
35960;DHT22;22043;50.970;7.192;2023-03-01T05:32:01;1.00;99.90
35960;DHT22;22043;50.970;7.192;2023-03-01T05:34:30;0.90;99.90
35960;DHT22;22043;50.970;7.192;2023-03-01T05:36:57;0.90;99.90
35960;DHT22;22043;50.970;7.192;2023-03-01T05:39:24;0.90;99.90
35960;DHT22;22043;50.970;7.192;2023-03-01T05:41:59;0.80;99.90
35960;DHT22;22043;50.970;7.192;2023-03-01T05:44:26;0.80;99.90
35960;DHT22;22043;50.970;7.192;2023-03-01T05:46:52;0.80;99.90
35960;DHT22;22043;50.970;7.192;2023-03-01T05:49:18;0.90;99.90
35960;DHT22;22043;50.970;7.192;2023-03-01T05:51:48;0.90;99.90
35960;DHT22;22043;50.970;7.192;2023-03-01T05:54:14;0.90;99.90
35960;DHT22;22043;50.970;7.192;2023-03-01T05:56:40;0.90;99.90
35960;DHT22;22043;50.970;7.192;2023-03-01T05:59:05;1.00;99.90
35960;DHT22;22043;50.970;7.192;2023-03-01T06:01:32;1.00;99.90
35960;DHT22;22043;50.970;7.192;2023-03-01T06:03:58;0.90;99.90
35960;DHT22;22043;50.970;7.192;2023-03-01T06:06:24;0.90;99.90
35960;DHT22;22043;50.970;7.192;2023-03-01T06:08:51;1.00;99.90
35960;DHT22;22043;50.970;7.192;2023-03-01T06:11:16;1.00;99.90
35960;DHT22;22043;50.970;7.192;2023-03-01T06:13:43;1.00;99.90
35960;DHT22;22043;50.970;7.192;2023-03-01T06:16:09;1.00;99.90
35960;DHT22;22043;50.970;7.192;2023-03-01T06:18:36;1.00;99.90
35960;DHT22;22043;50.970;7.192;2023-03-01T06:21:02;1.00;99.90
35960;DHT22;22043;50.970;7.192;2023-03-01T06:23:27;1.00;99.90
35960;DHT22;22043;50.970;7.192;2023-03-01T06:25:53;1.00;99.90
35960;DHT22;22043;50.970;7.192;2023-03-01T06:28:19;1.00;99.90
35960;DHT22;22043;50.970;7.192;2023-03-01T06:30:44;0.90;99.90
35960;DHT22;22043;50.970;7.192;2023-03-01T06:33:10;0.80;99.90
35960;DHT22;22043;50.970;7.192;2023-03-01T06:35:36;0.80;99.90
35960;DHT22;22043;50.970;7.192;2023-03-01T06:38:03;0.80;99.90
35960;DHT22;22043;50.970;7.192;2023-03-01T06:40:30;0.90;99.90
35960;DHT22;22043;50.970;7.192;2023-03-01T06:42:57;0.90;99.90
35960;DHT22;22043;50.970;7.192;2023-03-01T06:45:23;0.90;99.90
35960;DHT22;22043;50.970;7.192;2023-03-01T06:47:50;0.90;99.90
35960;DHT22;22043;50.970;7.192;2023-03-01T06:50:16;0.90;99.90
35960;DHT22;22043;50.970;7.192;2023-03-01T06:52:42;0.90;99.90
35960;DHT22;22043;50.970;7.192;2023-03-01T06:55:11;0.90;99.90
35960;DHT22;22043;50.970;7.192;2023-03-01T06:57:36;0.90;99.90
35960;DHT22;22043;50.970;7.192;2023-03-01T07:00:04;0.90;99.90
35960;DHT22;22043;50.970;7.192;2023-03-01T07:02:30;0.90;99.90
35960;DHT22;22043;50.970;7.192;2023-03-01T07:04:56;0.90;99.90
35960;DHT22;22043;50.970;7.192;2023-03-01T07:07:21;0.90;99.90
35960;DHT22;22043;50.970;7.192;2023-03-01T07:09:49;1.00;99.90
35960;DHT22;22043;50.970;7.192;2023-03-01T07:12:15;1.00;99.90
35960;DHT22;22043;50.970;7.192;2023-03-01T07:14:41;1.00;99.90
35960;DHT22;22043;50.970;7.192;2023-03-01T07:17:07;1.00;99.90
35960;DHT22;22043;50.970;7.192;2023-03-01T07:19:32;1.00;99.90
35960;DHT22;22043;50.970;7.192;2023-03-01T07:21:58;1.10;99.90
35960;DHT22;22043;50.970;7.192;2023-03-01T07:24:23;1.00;99.90
35960;DHT22;22043;50.970;7.192;2023-03-01T07:29:40;1.00;99.90
35960;DHT22;22043;50.970;7.192;2023-03-01T07:32:06;1.10;99.90
35960;DHT22;22043;50.970;7.192;2023-03-01T07:34:32;1.00;99.90
35960;DHT22;22043;50.970;7.192;2023-03-01T07:36:58;1.00;99.90
35960;DHT22;22043;50.970;7.192;2023-03-01T07:39:24;1.00;99.90
35960;DHT22;22043;50.970;7.192;2023-03-01T07:41:50;1.10;99.90
35960;DHT22;22043;50.970;7.192;2023-03-01T07:44:20;1.10;99.90
35960;DHT22;22043;50.970;7.192;2023-03-01T07:46:46;1.20;99.90
35960;DHT22;22043;50.970;7.192;2023-03-01T07:49:11;1.20;99.90
35960;DHT22;22043;50.970;7.192;2023-03-01T07:51:37;1.30;99.90
35960;DHT22;22043;50.970;7.192;2023-03-01T07:54:03;1.30;99.90
35960;DHT22;22043;50.970;7.192;2023-03-01T07:56:28;1.30;99.90
35960;DHT22;22043;50.970;7.192;2023-03-01T07:58:54;1.30;99.90
35960;DHT22;22043;50.970;7.192;2023-03-01T08:01:20;1.40;99.90
35960;DHT22;22043;50.970;7.192;2023-03-01T08:03:46;1.40;99.90
35960;DHT22;22043;50.970;7.192;2023-03-01T08:06:14;1.50;99.90
35960;DHT22;22043;50.970;7.192;2023-03-01T08:08:40;1.50;99.90
35960;DHT22;22043;50.970;7.192;2023-03-01T08:11:07;1.50;99.90
35960;DHT22;22043;50.970;7.192;2023-03-01T08:13:33;1.60;99.90
35960;DHT22;22043;50.970;7.192;2023-03-01T08:16:08;1.60;99.90
35960;DHT22;22043;50.970;7.192;2023-03-01T08:18:35;1.70;99.90
35960;DHT22;22043;50.970;7.192;2023-03-01T08:21:06;1.70;99.90
35960;DHT22;22043;50.970;7.192;2023-03-01T08:23:32;1.70;99.90
35960;DHT22;22043;50.970;7.192;2023-03-01T08:26:24;1.70;99.90
35960;DHT22;22043;50.970;7.192;2023-03-01T08:28:50;1.70;99.90
35960;DHT22;22043;50.970;7.192;2023-03-01T08:31:24;1.80;99.90
35960;DHT22;22043;50.970;7.192;2023-03-01T08:33:53;1.80;99.90
35960;DHT22;22043;50.970;7.192;2023-03-01T08:36:27;1.80;99.90
35960;DHT22;22043;50.970;7.192;2023-03-01T08:38:53;1.90;99.90
35960;DHT22;22043;50.970;7.192;2023-03-01T08:41:19;2.00;99.90
35960;DHT22;22043;50.970;7.192;2023-03-01T08:43:45;2.00;99.90
35960;DHT22;22043;50.970;7.192;2023-03-01T08:46:11;2.00;99.90
35960;DHT22;22043;50.970;7.192;2023-03-01T08:48:37;2.10;99.90
35960;DHT22;22043;50.970;7.192;2023-03-01T08:51:14;2.10;99.90
35960;DHT22;22043;50.970;7.192;2023-03-01T08:53:41;2.10;99.90
35960;DHT22;22043;50.970;7.192;2023-03-01T08:56:07;2.10;99.90
35960;DHT22;22043;50.970;7.192;2023-03-01T08:58:34;2.10;99.90
35960;DHT22;22043;50.970;7.192;2023-03-01T09:01:00;2.10;99.90
35960;DHT22;22043;50.970;7.192;2023-03-01T09:03:26;2.20;99.90
35960;DHT22;22043;50.970;7.192;2023-03-01T09:05:52;2.20;99.90
35960;DHT22;22043;50.970;7.192;2023-03-01T09:08:19;2.20;99.90
35960;DHT22;22043;50.970;7.192;2023-03-01T09:10:45;2.20;99.90
35960;DHT22;22043;50.970;7.192;2023-03-01T09:13:11;2.30;99.90
35960;DHT22;22043;50.970;7.192;2023-03-01T09:15:38;2.30;99.90
35960;DHT22;22043;50.970;7.192;2023-03-01T09:18:04;2.30;99.90
35960;DHT22;22043;50.970;7.192;2023-03-01T09:20:30;2.40;99.90
35960;DHT22;22043;50.970;7.192;2023-03-01T09:22:57;2.40;99.90
35960;DHT22;22043;50.970;7.192;2023-03-01T09:25:23;2.50;99.90
35960;DHT22;22043;50.970;7.192;2023-03-01T09:27:52;2.50;99.90
35960;DHT22;22043;50.970;7.192;2023-03-01T09:30:18;2.50;99.90
35960;DHT22;22043;50.970;7.192;2023-03-01T09:32:44;2.50;99.90
35960;DHT22;22043;50.970;7.192;2023-03-01T09:35:11;2.60;99.90
35960;DHT22;22043;50.970;7.192;2023-03-01T09:37:37;2.60;99.90
35960;DHT22;22043;50.970;7.192;2023-03-01T09:40:05;2.60;99.90
35960;DHT22;22043;50.970;7.192;2023-03-01T09:42:35;2.70;99.90
35960;DHT22;22043;50.970;7.192;2023-03-01T09:45:04;2.60;99.90
35960;DHT22;22043;50.970;7.192;2023-03-01T09:47:33;2.70;99.90
35960;DHT22;22043;50.970;7.192;2023-03-01T09:50:16;2.70;99.90
35960;DHT22;22043;50.970;7.192;2023-03-01T09:55:34;2.80;99.90
35960;DHT22;22043;50.970;7.192;2023-03-01T10:01:02;2.90;99.90
35960;DHT22;22043;50.970;7.192;2023-03-01T10:03:43;3.00;99.90
35960;DHT22;22043;50.970;7.192;2023-03-01T10:06:18;3.00;99.90
35960;DHT22;22043;50.970;7.192;2023-03-01T10:08:53;3.10;99.90
35960;DHT22;22043;50.970;7.192;2023-03-01T10:11:37;3.10;99.90
35960;DHT22;22043;50.970;7.192;2023-03-01T10:19:51;3.20;99.90
35960;DHT22;22043;50.970;7.192;2023-03-01T10:22:22;3.30;99.90
35960;DHT22;22043;50.970;7.192;2023-03-01T10:24:51;3.30;99.90
35960;DHT22;22043;50.970;7.192;2023-03-01T10:27:25;3.30;99.90
35960;DHT22;22043;50.970;7.192;2023-03-01T10:30:13;3.40;99.90
35960;DHT22;22043;50.970;7.192;2023-03-01T10:32:42;3.40;99.90
35960;DHT22;22043;50.970;7.192;2023-03-01T10:35:19;3.50;99.90
35960;DHT22;22043;50.970;7.192;2023-03-01T10:38:12;3.50;99.90
35960;DHT22;22043;50.970;7.192;2023-03-01T10:40:59;3.50;99.90
35960;DHT22;22043;50.970;7.192;2023-03-01T10:43:51;3.60;99.90
35960;DHT22;22043;50.970;7.192;2023-03-01T10:51:40;3.70;99.90
35960;DHT22;22043;50.970;7.192;2023-03-01T10:57:04;3.80;99.90
35960;DHT22;22043;50.970;7.192;2023-03-01T10:59:38;3.90;99.90
35960;DHT22;22043;50.970;7.192;2023-03-01T11:02:22;3.90;99.90
35960;DHT22;22043;50.970;7.192;2023-03-01T11:05:03;3.90;99.90
35960;DHT22;22043;50.970;7.192;2023-03-01T11:08:01;4.00;99.90
35960;DHT22;22043;50.970;7.192;2023-03-01T11:10:31;4.10;99.90
35960;DHT22;22043;50.970;7.192;2023-03-01T11:13:19;4.10;99.90
35960;DHT22;22043;50.970;7.192;2023-03-01T11:16:07;4.10;99.90
35960;DHT22;22043;50.970;7.192;2023-03-01T11:18:35;4.20;99.90
35960;DHT22;22043;50.970;7.192;2023-03-01T11:21:01;4.20;99.90
35960;DHT22;22043;50.970;7.192;2023-03-01T11:23:29;4.20;99.90
35960;DHT22;22043;50.970;7.192;2023-03-01T11:26:00;4.30;99.90
35960;DHT22;22043;50.970;7.192;2023-03-01T11:28:29;4.30;99.90
35960;DHT22;22043;50.970;7.192;2023-03-01T11:30:56;4.30;99.90
35960;DHT22;22043;50.970;7.192;2023-03-01T11:33:41;4.30;99.80
35960;DHT22;22043;50.970;7.192;2023-03-01T11:36:24;4.40;99.70
35960;DHT22;22043;50.970;7.192;2023-03-01T11:38:53;4.40;99.10
35960;DHT22;22043;50.970;7.192;2023-03-01T11:41:31;4.50;98.90
35960;DHT22;22043;50.970;7.192;2023-03-01T11:51:52;4.60;98.50
35960;DHT22;22043;50.970;7.192;2023-03-01T11:57:26;4.70;98.40
35960;DHT22;22043;50.970;7.192;2023-03-01T12:08:21;4.90;96.70
35960;DHT22;22043;50.970;7.192;2023-03-01T12:13:25;4.90;96.90
35960;DHT22;22043;50.970;7.192;2023-03-01T12:16:02;4.90;96.10
35960;DHT22;22043;50.970;7.192;2023-03-01T12:21:42;5.10;95.60
35960;DHT22;22043;50.970;7.192;2023-03-01T12:24:30;5.10;95.80
35960;DHT22;22043;50.970;7.192;2023-03-01T12:40:38;5.30;93.70
35960;DHT22;22043;50.970;7.192;2023-03-01T12:46:14;5.40;92.00
35960;DHT22;22043;50.970;7.192;2023-03-01T12:51:24;5.40;92.40
35960;DHT22;22043;50.970;7.192;2023-03-01T12:53:53;5.50;93.90
35960;DHT22;22043;50.970;7.192;2023-03-01T12:56:26;5.60;93.20
35960;DHT22;22043;50.970;7.192;2023-03-01T12:59:18;5.60;91.90
35960;DHT22;22043;50.970;7.192;2023-03-01T13:08:01;5.70;90.10
35960;DHT22;22043;50.970;7.192;2023-03-01T13:10:43;5.80;90.30
35960;DHT22;22043;50.970;7.192;2023-03-01T13:13:19;5.80;90.70
35960;DHT22;22043;50.970;7.192;2023-03-01T13:15:45;5.80;91.90
35960;DHT22;22043;50.970;7.192;2023-03-01T13:23:12;5.90;94.50
35960;DHT22;22043;50.970;7.192;2023-03-01T13:26:13;5.90;94.80
35960;DHT22;22043;50.970;7.192;2023-03-01T13:34:01;6.10;94.30
35960;DHT22;22043;50.970;7.192;2023-03-01T13:39:03;6.20;94.00
35960;DHT22;22043;50.970;7.192;2023-03-01T13:47:16;6.20;94.10
35960;DHT22;22043;50.970;7.192;2023-03-01T13:49:47;6.20;93.30
35960;DHT22;22043;50.970;7.192;2023-03-01T13:54:59;6.20;93.30
35960;DHT22;22043;50.970;7.192;2023-03-01T13:57:30;6.30;92.90
35960;DHT22;22043;50.970;7.192;2023-03-01T13:59:57;6.30;91.60
35960;DHT22;22043;50.970;7.192;2023-03-01T14:02:23;6.30;92.20
35960;DHT22;22043;50.970;7.192;2023-03-01T14:04:59;6.30;91.30
35960;DHT22;22043;50.970;7.192;2023-03-01T14:07:26;6.30;90.70
35960;DHT22;22043;50.970;7.192;2023-03-01T14:09:59;6.30;90.30
35960;DHT22;22043;50.970;7.192;2023-03-01T14:15:35;6.40;90.30
35960;DHT22;22043;50.970;7.192;2023-03-01T14:20:33;6.40;91.40
35960;DHT22;22043;50.970;7.192;2023-03-01T14:23:10;6.40;91.90
35960;DHT22;22043;50.970;7.192;2023-03-01T14:25:38;6.40;93.10
35960;DHT22;22043;50.970;7.192;2023-03-01T14:28:33;6.50;93.30
35960;DHT22;22043;50.970;7.192;2023-03-01T14:31:04;6.40;93.50
35960;DHT22;22043;50.970;7.192;2023-03-01T14:33:55;6.40;93.10
35960;DHT22;22043;50.970;7.192;2023-03-01T14:36:26;6.50;93.30
35960;DHT22;22043;50.970;7.192;2023-03-01T14:38:52;6.40;94.00
35960;DHT22;22043;50.970;7.192;2023-03-01T14:41:22;6.40;94.20
35960;DHT22;22043;50.970;7.192;2023-03-01T14:43:58;6.50;94.30
35960;DHT22;22043;50.970;7.192;2023-03-01T14:46:34;6.40;95.60
35960;DHT22;22043;50.970;7.192;2023-03-01T14:49:17;6.40;96.00
35960;DHT22;22043;50.970;7.192;2023-03-01T14:51:57;6.40;95.20
35960;DHT22;22043;50.970;7.192;2023-03-01T14:57:01;6.50;94.90
35960;DHT22;22043;50.970;7.192;2023-03-01T14:59:28;6.40;95.10
35960;DHT22;22043;50.970;7.192;2023-03-01T15:01:56;6.40;95.10
35960;DHT22;22043;50.970;7.192;2023-03-01T15:04:23;6.40;95.70
35960;DHT22;22043;50.970;7.192;2023-03-01T15:06:57;6.40;95.30
35960;DHT22;22043;50.970;7.192;2023-03-01T15:09:31;6.30;94.80
35960;DHT22;22043;50.970;7.192;2023-03-01T15:11:58;6.30;95.90
35960;DHT22;22043;50.970;7.192;2023-03-01T15:14:41;6.40;95.20
35960;DHT22;22043;50.970;7.192;2023-03-01T15:19:56;6.40;93.70
35960;DHT22;22043;50.970;7.192;2023-03-01T15:22:23;6.40;93.10
35960;DHT22;22043;50.970;7.192;2023-03-01T15:24:50;6.40;93.90
35960;DHT22;22043;50.970;7.192;2023-03-01T15:27:21;6.40;93.50
35960;DHT22;22043;50.970;7.192;2023-03-01T15:29:59;6.40;93.10
35960;DHT22;22043;50.970;7.192;2023-03-01T15:32:32;6.40;93.30
35960;DHT22;22043;50.970;7.192;2023-03-01T15:34:59;6.40;93.40
35960;DHT22;22043;50.970;7.192;2023-03-01T15:37:45;6.50;93.50
35960;DHT22;22043;50.970;7.192;2023-03-01T15:40:32;6.50;93.40
35960;DHT22;22043;50.970;7.192;2023-03-01T15:43:03;6.40;93.90
35960;DHT22;22043;50.970;7.192;2023-03-01T15:45:30;6.40;93.60
35960;DHT22;22043;50.970;7.192;2023-03-01T15:48:04;6.40;94.10
35960;DHT22;22043;50.970;7.192;2023-03-01T15:50:36;6.40;92.90
35960;DHT22;22043;50.970;7.192;2023-03-01T15:53:08;6.40;92.40
35960;DHT22;22043;50.970;7.192;2023-03-01T15:55:36;6.40;92.60
35960;DHT22;22043;50.970;7.192;2023-03-01T15:58:10;6.30;92.70
35960;DHT22;22043;50.970;7.192;2023-03-01T16:00:37;6.30;92.10
35960;DHT22;22043;50.970;7.192;2023-03-01T16:03:04;6.30;92.20
35960;DHT22;22043;50.970;7.192;2023-03-01T16:05:33;6.20;92.80
35960;DHT22;22043;50.970;7.192;2023-03-01T16:08:00;6.30;92.50
35960;DHT22;22043;50.970;7.192;2023-03-01T16:10:27;6.30;92.30
35960;DHT22;22043;50.970;7.192;2023-03-01T16:12:53;6.30;92.30
35960;DHT22;22043;50.970;7.192;2023-03-01T16:15:27;6.30;92.30
35960;DHT22;22043;50.970;7.192;2023-03-01T16:17:53;6.30;92.60
35960;DHT22;22043;50.970;7.192;2023-03-01T16:20:21;6.20;93.10
35960;DHT22;22043;50.970;7.192;2023-03-01T16:22:47;6.20;93.10
35960;DHT22;22043;50.970;7.192;2023-03-01T16:25:16;6.10;93.20
35960;DHT22;22043;50.970;7.192;2023-03-01T16:27:43;6.10;93.50
35960;DHT22;22043;50.970;7.192;2023-03-01T16:30:10;6.10;92.60
35960;DHT22;22043;50.970;7.192;2023-03-01T16:32:44;6.10;92.50
35960;DHT22;22043;50.970;7.192;2023-03-01T16:35:11;6.10;92.40
35960;DHT22;22043;50.970;7.192;2023-03-01T16:37:38;6.10;91.80
35960;DHT22;22043;50.970;7.192;2023-03-01T16:40:07;6.10;91.80
35960;DHT22;22043;50.970;7.192;2023-03-01T16:42:37;6.00;91.90
35960;DHT22;22043;50.970;7.192;2023-03-01T16:45:06;6.00;92.30
35960;DHT22;22043;50.970;7.192;2023-03-01T16:47:33;5.90;92.40
35960;DHT22;22043;50.970;7.192;2023-03-01T16:49:58;5.90;92.40
35960;DHT22;22043;50.970;7.192;2023-03-01T16:52:24;5.90;92.20
35960;DHT22;22043;50.970;7.192;2023-03-01T16:54:50;5.90;92.20
35960;DHT22;22043;50.970;7.192;2023-03-01T16:57:17;5.90;92.50
35960;DHT22;22043;50.970;7.192;2023-03-01T16:59:43;5.90;92.20
35960;DHT22;22043;50.970;7.192;2023-03-01T17:02:10;5.80;92.50
35960;DHT22;22043;50.970;7.192;2023-03-01T17:04:38;5.80;92.70
35960;DHT22;22043;50.970;7.192;2023-03-01T17:07:05;5.80;92.80
35960;DHT22;22043;50.970;7.192;2023-03-01T17:09:35;5.80;93.00
35960;DHT22;22043;50.970;7.192;2023-03-01T17:12:01;5.70;93.20
35960;DHT22;22043;50.970;7.192;2023-03-01T17:14:27;5.70;93.40
35960;DHT22;22043;50.970;7.192;2023-03-01T17:16:52;5.60;92.90
35960;DHT22;22043;50.970;7.192;2023-03-01T17:19:18;5.60;93.30
35960;DHT22;22043;50.970;7.192;2023-03-01T17:21:45;5.60;93.30
35960;DHT22;22043;50.970;7.192;2023-03-01T17:24:11;5.50;92.90
35960;DHT22;22043;50.970;7.192;2023-03-01T17:26:38;5.50;93.60
35960;DHT22;22043;50.970;7.192;2023-03-01T17:29:04;5.50;93.10
35960;DHT22;22043;50.970;7.192;2023-03-01T17:31:31;5.50;93.50
35960;DHT22;22043;50.970;7.192;2023-03-01T17:33:57;5.50;93.10
35960;DHT22;22043;50.970;7.192;2023-03-01T17:36:23;5.40;93.00
35960;DHT22;22043;50.970;7.192;2023-03-01T17:38:49;5.40;93.50
35960;DHT22;22043;50.970;7.192;2023-03-01T17:41:15;5.40;93.40
35960;DHT22;22043;50.970;7.192;2023-03-01T17:43:44;5.40;93.70
35960;DHT22;22043;50.970;7.192;2023-03-01T17:46:09;5.40;93.10
35960;DHT22;22043;50.970;7.192;2023-03-01T17:48:36;5.40;93.20
35960;DHT22;22043;50.970;7.192;2023-03-01T17:51:09;5.30;93.00
35960;DHT22;22043;50.970;7.192;2023-03-01T17:53:36;5.30;93.20
35960;DHT22;22043;50.970;7.192;2023-03-01T17:56:04;5.20;93.00